If you wish to contribute or participate in the discussions about articles you are invited to join SKYbrary as a registered user

 Actions

Alverca Airbase

From SKYbrary Wiki

LPAR
Airport
ICAO: LPAR
Summary
Name Alverca Airbase
Region Europe
Territory Portugal PT.gif
Location Alverca do Ribatejo, Vila Franca de Xira
Serving Military facility
Elevation 0.914 m <br />3 ft0.914 m <br />
Coordinates 38° 53' 22.20" N, 9° 1' 43.79" W
Runways
Designator Length Width Surface ROPS
4/22 2990 m9,809.711 ft <br /> 45 m147.638 ft <br /> ASP /


METAR
Observation LPAR 181000Z 06005KT 6000 NSC 05/04 Q1028
Station ALVERCA
Date/Time 18 January 2021 10:00:00
Wind direction 60°
Wind speed 05 kts
Lowest cloud amount nil significant cloud
Temperature 5°C
Dew point 4°C
Humidity 93%
QNH 1028 hPa
Weather condition n/a

Portuguese military base located north east of Lisbon.

Climatology

Warm mediterranean climate (Köppen climate classification Csa)

Maps

Terrain

Loading map...

Airport Layout

Loading map...


Accidents & Serious Incidents at or in vicinity of LPAR

None on SKYbrary